createdAt,value
2024-03-23T00:00:16.356Z,3.952
2024-03-23T00:01:16.283Z,3.857
2024-03-23T00:02:16.300Z,3.857
2024-03-23T00:03:16.319Z,3.871
2024-03-23T00:04:16.309Z,3.884
2024-03-23T00:05:16.323Z,3.884
2024-03-23T00:06:16.332Z,3.852
2024-03-23T00:07:16.325Z,3.852
2024-03-23T00:08:16.340Z,3.852
2024-03-23T00:09:16.364Z,3.879
2024-03-23T00:10:16.352Z,3.879
2024-03-23T00:11:16.362Z,3.919
2024-03-23T00:12:16.438Z,3.932
2024-03-23T00:13:16.399Z,3.932
2024-03-23T00:14:16.388Z,3.919
2024-03-23T00:15:16.419Z,3.919
2024-03-23T00:16:16.394Z,3.847
2024-03-23T00:17:16.414Z,3.859
2024-03-23T00:18:16.509Z,3.848
2024-03-23T00:19:16.421Z,3.834
2024-03-23T00:20:16.442Z,3.834
2024-03-23T00:21:16.490Z,3.860
2024-03-23T00:22:16.457Z,3.874
2024-03-23T00:23:16.464Z,3.847
2024-03-23T00:24:16.543Z,3.834
2024-03-23T00:25:16.483Z,3.834
2024-03-23T00:26:16.514Z,3.798
2024-03-23T00:27:16.494Z,3.812
2024-03-23T00:28:16.506Z,3.812
2024-03-23T00:29:16.517Z,3.825
2024-03-23T00:30:16.514Z,3.812
2024-03-23T00:31:16.518Z,3.840
2024-03-23T00:32:16.535Z,3.866
2024-03-23T00:33:16.550Z,3.879
2024-03-23T00:34:16.550Z,3.905
2024-03-23T00:35:16.559Z,3.918
2024-03-23T00:36:16.561Z,3.918
2024-03-23T00:37:16.568Z,3.918
2024-03-23T00:38:16.572Z,3.919
2024-03-23T00:39:16.598Z,3.854
2024-03-23T00:40:16.593Z,3.892
2024-03-23T00:41:16.585Z,3.839
2024-03-23T00:42:16.597Z,3.840
2024-03-23T00:43:16.603Z,3.841
2024-03-23T00:44:16.629Z,3.840
2024-03-23T00:45:16.634Z,3.764
2024-03-23T00:46:16.651Z,3.764
2024-03-23T00:47:16.650Z,3.790
2024-03-23T00:48:16.666Z,3.816
2024-03-23T00:49:16.699Z,3.830
2024-03-23T00:50:16.671Z,3.904
2024-03-23T00:51:16.670Z,3.890
2024-03-23T00:52:16.691Z,3.903
2024-03-23T00:53:16.687Z,3.904
2024-03-23T00:54:16.716Z,3.903
2024-03-23T00:55:16.712Z,3.907
2024-03-23T00:56:16.717Z,3.920
2024-03-23T00:57:16.747Z,3.882
2024-03-23T00:58:16.755Z,3.920
2024-03-23T00:59:16.753Z,3.908
2024-03-23T01:00:16.770Z,3.911
2024-03-23T01:01:16.766Z,3.936
2024-03-23T01:02:16.777Z,3.923
2024-03-23T01:03:16.787Z,3.961
2024-03-23T01:04:16.779Z,3.963
2024-03-23T01:05:16.788Z,3.901
2024-03-23T01:06:16.806Z,3.876
2024-03-23T01:07:16.801Z,3.837
2024-03-23T01:08:16.826Z,3.850
2024-03-23T01:09:16.858Z,3.812
2024-03-23T01:10:16.843Z,3.798
2024-03-23T01:11:16.842Z,3.810
2024-03-23T01:12:16.856Z,3.809
2024-03-23T01:13:16.875Z,3.797
2024-03-23T01:14:16.905Z,3.823
2024-03-23T01:15:16.891Z,3.874
2024-03-23T01:16:16.900Z,3.873
2024-03-23T01:17:16.915Z,3.874
2024-03-23T01:18:16.947Z,3.874
2024-03-23T01:19:16.901Z,3.873
2024-03-23T01:20:16.918Z,3.836
2024-03-23T01:21:16.952Z,3.836
2024-03-23T01:22:16.948Z,3.837
2024-03-23T01:23:16.955Z,3.838
2024-03-23T01:24:16.958Z,3.837
2024-03-23T01:25:17.030Z,3.837
2024-03-23T01:26:17.038Z,3.837
2024-03-23T01:27:16.995Z,3.851
2024-03-23T01:28:17.058Z,3.851
2024-03-23T01:29:16.993Z,3.812
2024-03-23T01:30:17.018Z,3.810
2024-03-23T01:31:17.014Z,3.798
2024-03-23T01:32:17.029Z,3.772
2024-03-23T01:33:17.030Z,3.811
2024-03-23T01:34:17.050Z,3.811
2024-03-23T01:35:17.063Z,3.794
2024-03-23T01:36:17.087Z,3.808
2024-03-23T01:37:17.074Z,3.782
2024-03-23T01:38:17.087Z,3.730
2024-03-23T01:39:17.100Z,3.729
2024-03-23T01:40:17.172Z,3.667
2024-03-23T01:41:17.111Z,3.667
2024-03-23T01:42:17.110Z,3.616
2024-03-23T01:43:17.119Z,3.628
2024-03-23T01:44:17.121Z,3.628
2024-03-23T01:45:17.155Z,3.653
2024-03-23T01:46:17.189Z,3.666
2024-03-23T01:47:17.157Z,3.666
2024-03-23T01:48:17.188Z,3.653
2024-03-23T01:49:17.176Z,3.666
2024-03-23T01:50:17.221Z,3.653
2024-03-23T01:51:17.193Z,3.665
2024-03-23T01:52:17.197Z,3.652
2024-03-23T01:53:17.207Z,3.666
2024-03-23T01:54:17.212Z,3.653
2024-03-23T01:55:17.211Z,3.611
2024-03-23T01:56:17.227Z,3.572
2024-03-23T01:57:17.237Z,3.545
2024-03-23T01:58:17.264Z,3.545
2024-03-23T01:59:17.282Z,3.506
2024-03-23T02:00:17.280Z,3.484
2024-03-23T02:01:17.290Z,3.458
2024-03-23T02:02:17.302Z,3.417
2024-03-23T02:03:17.311Z,3.405
2024-03-23T02:04:17.329Z,3.391
2024-03-23T02:05:17.315Z,3.370
2024-03-23T02:06:17.315Z,3.357
2024-03-23T02:07:17.330Z,3.344
2024-03-23T02:08:17.337Z,3.317
2024-03-23T02:09:17.344Z,3.304
2024-03-23T02:10:17.358Z,3.285
2024-03-23T02:11:17.364Z,3.272
2024-03-23T02:12:17.375Z,3.259
2024-03-23T02:13:17.399Z,3.246
2024-03-23T02:14:17.391Z,3.207
2024-03-23T02:15:17.414Z,3.142
2024-03-23T02:16:17.412Z,3.142
2024-03-23T02:17:17.432Z,3.102
2024-03-23T02:18:17.430Z,3.101
2024-03-23T02:19:17.426Z,3.128
2024-03-23T02:20:17.459Z,3.094
2024-03-23T02:21:17.441Z,3.094
2024-03-23T02:22:17.467Z,3.094
2024-03-23T02:23:17.466Z,3.120
2024-03-23T02:24:17.476Z,3.093
2024-03-23T02:25:17.480Z,3.124
2024-03-23T02:26:17.488Z,3.097
2024-03-23T02:27:17.520Z,3.098
2024-03-23T02:28:17.504Z,3.110
2024-03-23T02:29:17.497Z,3.098
2024-03-23T02:30:17.510Z,3.088
2024-03-23T02:31:17.512Z,3.075
2024-03-23T02:32:17.547Z,3.087
2024-03-23T02:33:17.534Z,3.048
2024-03-23T02:34:17.545Z,3.034
2024-03-23T02:35:17.553Z,3.030
2024-03-23T02:36:17.563Z,3.029
2024-03-23T02:37:17.571Z,3.003
2024-03-23T02:38:17.590Z,3.002
2024-03-23T02:39:17.586Z,2.988
2024-03-23T02:40:17.590Z,2.949
2024-03-23T02:41:17.635Z,2.949
2024-03-23T02:42:17.603Z,2.923
2024-03-23T02:43:17.604Z,2.934
2024-03-23T02:44:17.614Z,2.893
2024-03-23T02:45:17.623Z,2.893
2024-03-23T02:46:17.655Z,2.866
2024-03-23T02:47:17.651Z,2.880
2024-03-23T02:48:17.657Z,2.879
2024-03-23T02:49:17.666Z,2.865
2024-03-23T02:50:17.680Z,2.862
2024-03-23T02:51:17.682Z,2.850
2024-03-23T02:52:17.692Z,2.862
2024-03-23T02:53:17.700Z,2.875
2024-03-23T02:54:17.697Z,2.889
2024-03-23T02:55:17.719Z,2.875
2024-03-23T02:56:17.722Z,2.875
2024-03-23T02:57:17.732Z,2.809
2024-03-23T02:58:17.751Z,2.835
2024-03-23T02:59:17.753Z,2.834
2024-03-23T03:00:17.784Z,2.834
2024-03-23T03:01:18.254Z,2.847
2024-03-23T03:02:17.784Z,2.860
2024-03-23T03:03:17.787Z,2.862
2024-03-23T03:04:17.799Z,2.823
2024-03-23T03:05:17.793Z,2.847
2024-03-23T03:06:17.796Z,2.807
2024-03-23T03:07:17.808Z,2.796
2024-03-23T03:08:17.822Z,2.796
2024-03-23T03:09:17.852Z,2.771
2024-03-23T03:10:17.849Z,2.814
2024-03-23T03:11:17.847Z,2.788
2024-03-23T03:12:17.857Z,2.774
2024-03-23T03:13:17.866Z,2.760
2024-03-23T03:14:17.884Z,2.760
2024-03-23T03:15:17.874Z,2.711
2024-03-23T03:16:17.881Z,2.683
2024-03-23T03:17:17.882Z,2.657
2024-03-23T03:18:17.919Z,2.643
2024-03-23T03:19:17.908Z,2.629
2024-03-23T03:20:17.917Z,2.589
2024-03-23T03:21:17.922Z,2.589
2024-03-23T03:22:17.936Z,2.602
2024-03-23T03:23:17.979Z,2.602
2024-03-23T03:24:17.974Z,2.602
2024-03-23T03:25:17.986Z,2.638
2024-03-23T03:26:17.976Z,2.652
2024-03-23T03:27:17.979Z,2.665
2024-03-23T03:28:17.991Z,2.664
2024-03-23T03:29:17.992Z,2.679
2024-03-23T03:30:18.017Z,2.665
2024-03-23T03:31:18.012Z,2.628
2024-03-23T03:32:18.039Z,2.642
2024-03-23T03:33:18.038Z,2.616
2024-03-23T03:34:18.047Z,2.617
2024-03-23T03:35:18.056Z,2.583
2024-03-23T03:36:18.068Z,2.583
2024-03-23T03:37:18.090Z,2.571
2024-03-23T03:38:18.086Z,2.570
2024-03-23T03:39:18.099Z,2.557
2024-03-23T03:40:18.100Z,2.557
2024-03-23T03:41:18.108Z,2.544
2024-03-23T03:42:18.096Z,2.492
2024-03-23T03:43:18.115Z,2.466
2024-03-23T03:44:18.120Z,2.467
2024-03-23T03:45:18.139Z,2.466
2024-03-23T03:46:18.143Z,2.451
2024-03-23T03:47:18.150Z,2.427
2024-03-23T03:48:18.159Z,2.427
2024-03-23T03:49:20.332Z,2.466
2024-03-23T03:50:18.178Z,2.500
2024-03-23T03:51:18.192Z,2.538
2024-03-23T03:52:18.193Z,2.513
2024-03-23T03:53:18.206Z,2.513
2024-03-23T03:54:18.210Z,2.537
2024-03-23T03:55:18.211Z,2.494
2024-03-23T03:56:18.268Z,2.520
2024-03-23T03:57:18.241Z,2.533
2024-03-23T03:58:18.251Z,2.533
2024-03-23T03:59:18.263Z,2.546
2024-03-23T04:00:18.268Z,2.533
2024-03-23T04:01:18.274Z,2.519
2024-03-23T04:02:18.280Z,2.494
2024-03-23T04:03:18.288Z,2.465
2024-03-23T04:04:18.287Z,2.465
2024-03-23T04:05:18.329Z,2.456
2024-03-23T04:06:18.305Z,2.455
2024-03-23T04:07:18.305Z,2.468
2024-03-23T04:08:18.321Z,2.469
2024-03-23T04:09:18.325Z,2.455
2024-03-23T04:10:18.369Z,2.425
2024-03-23T04:11:18.350Z,2.425
2024-03-23T04:12:18.367Z,2.425
2024-03-23T04:13:18.368Z,2.438
2024-03-23T04:14:18.389Z,2.465
2024-03-23T04:15:18.406Z,2.424
2024-03-23T04:16:18.396Z,2.438
2024-03-23T04:17:18.401Z,2.465
2024-03-23T04:18:18.400Z,2.465
2024-03-23T04:19:18.420Z,2.465
2024-03-23T04:20:18.414Z,2.441
2024-03-23T04:21:18.433Z,2.454
2024-03-23T04:22:18.440Z,2.454
2024-03-23T04:23:18.453Z,2.441
2024-03-23T04:24:18.479Z,2.454
2024-03-23T04:25:18.468Z,2.491
2024-03-23T04:26:18.477Z,2.492
2024-03-23T04:27:18.479Z,2.492
2024-03-23T04:28:18.483Z,2.505
2024-03-23T04:29:18.494Z,2.519
2024-03-23T04:30:18.495Z,2.481
2024-03-23T04:31:18.502Z,2.482
2024-03-23T04:32:18.513Z,2.481
2024-03-23T04:33:18.541Z,2.468
2024-03-23T04:34:18.536Z,2.467
2024-03-23T04:35:18.558Z,2.459
2024-03-23T04:36:18.557Z,2.472
2024-03-23T04:37:18.568Z,2.447
2024-03-23T04:38:18.608Z,2.447
2024-03-23T04:39:18.591Z,2.410
2024-03-23T04:40:18.600Z,2.377
2024-03-23T04:41:18.607Z,2.364
2024-03-23T04:42:18.615Z,2.337
2024-03-23T04:43:18.606Z,2.338
2024-03-23T04:44:18.604Z,2.338
2024-03-23T04:45:18.628Z,2.337
2024-03-23T04:46:18.635Z,2.337
2024-03-23T04:47:18.649Z,2.337
2024-03-23T04:48:18.658Z,2.322
2024-03-23T04:49:18.667Z,2.284
2024-03-23T04:50:18.693Z,2.296
2024-03-23T04:51:18.689Z,2.295
2024-03-23T04:52:18.706Z,2.296
2024-03-23T04:53:18.706Z,2.297
2024-03-23T04:54:18.708Z,2.348
2024-03-23T04:55:18.716Z,2.392
2024-03-23T04:56:18.713Z,2.392
2024-03-23T04:57:18.752Z,2.367
2024-03-23T04:58:18.741Z,2.365
2024-03-23T04:59:18.742Z,2.312
2024-03-23T05:00:18.754Z,2.276
2024-03-23T05:01:18.764Z,2.276
2024-03-23T05:02:18.777Z,2.212
2024-03-23T05:03:18.779Z,2.225
2024-03-23T05:04:18.785Z,2.197
2024-03-23T05:05:18.794Z,2.180
2024-03-23T05:06:18.824Z,2.192
2024-03-23T05:07:18.814Z,2.207
2024-03-23T05:08:18.814Z,2.206
2024-03-23T05:09:18.829Z,2.206
2024-03-23T05:10:18.823Z,2.270
2024-03-23T05:11:18.865Z,2.257
2024-03-23T05:12:18.871Z,2.256
2024-03-23T05:13:18.869Z,2.257
2024-03-23T05:14:18.885Z,2.242
2024-03-23T05:15:18.892Z,2.228
2024-03-23T05:16:18.899Z,2.228
2024-03-23T05:17:18.907Z,2.243
2024-03-23T05:18:18.911Z,2.255
2024-03-23T05:19:18.922Z,2.243
2024-03-23T05:20:18.956Z,2.196
2024-03-23T05:21:18.936Z,2.197
2024-03-23T05:22:18.935Z,2.197
2024-03-23T05:23:18.948Z,2.197
2024-03-23T05:24:18.954Z,2.197
2024-03-23T05:25:18.984Z,2.188
2024-03-23T05:26:18.991Z,2.188
2024-03-23T05:27:19.003Z,2.187
2024-03-23T05:28:19.013Z,2.188
2024-03-23T05:29:19.022Z,2.161
2024-03-23T05:30:20.849Z,2.258
2024-03-23T05:31:19.040Z,2.206
2024-03-23T05:32:19.051Z,2.208
2024-03-23T05:33:19.055Z,2.207
2024-03-23T05:34:19.084Z,2.208
2024-03-23T05:35:19.056Z,2.175
2024-03-23T05:36:19.060Z,2.148
2024-03-23T05:37:19.072Z,2.148
2024-03-23T05:38:19.089Z,2.148
2024-03-23T05:39:19.115Z,2.161
2024-03-23T05:40:19.121Z,2.162
2024-03-23T05:41:19.121Z,2.160
2024-03-23T05:42:19.148Z,2.188
2024-03-23T05:43:19.145Z,2.187
2024-03-23T05:44:19.147Z,2.188
2024-03-23T05:45:19.158Z,2.175
2024-03-23T05:46:19.172Z,2.175
2024-03-23T05:47:19.175Z,2.175
2024-03-23T05:48:19.177Z,2.226
2024-03-23T05:49:19.174Z,2.174
2024-03-23T05:50:19.193Z,2.157
2024-03-23T05:51:19.211Z,2.157
2024-03-23T05:52:19.222Z,2.144
2024-03-23T05:53:19.260Z,2.143
2024-03-23T05:54:19.242Z,2.130
2024-03-23T05:55:19.268Z,2.226
2024-03-23T05:56:19.264Z,2.225
2024-03-23T05:57:22.029Z,2.224
2024-03-23T05:58:19.271Z,2.251
2024-03-23T05:59:19.270Z,2.198
2024-03-23T06:00:19.285Z,2.171
2024-03-23T06:01:19.288Z,2.157
2024-03-23T06:02:19.304Z,2.143
2024-03-23T06:03:19.304Z,2.143
2024-03-23T06:04:19.312Z,2.118
2024-03-23T06:05:19.322Z,2.036
2024-03-23T06:06:19.335Z,2.023
2024-03-23T06:07:19.363Z,2.036
2024-03-23T06:08:19.357Z,2.049
2024-03-23T06:09:19.372Z,2.050
2024-03-23T06:10:19.382Z,2.112
2024-03-23T06:11:19.385Z,2.099
2024-03-23T06:12:19.391Z,2.099
2024-03-23T06:13:19.402Z,2.098
2024-03-23T06:14:19.410Z,2.098
2024-03-23T06:15:19.406Z,2.085
2024-03-23T06:16:19.420Z,2.096
2024-03-23T06:17:19.427Z,2.059
2024-03-23T06:18:19.437Z,2.032
2024-03-23T06:19:19.449Z,2.043
2024-03-23T06:20:19.470Z,2.038
2024-03-23T06:21:19.486Z,2.000
2024-03-23T06:22:19.491Z,2.014
2024-03-23T06:23:19.514Z,2.038
2024-03-23T06:24:19.507Z,2.027
2024-03-23T06:25:19.518Z,2.021
2024-03-23T06:26:19.523Z,2.036
2024-03-23T06:27:19.539Z,2.033
2024-03-23T06:28:19.529Z,2.048
2024-03-23T06:29:19.537Z,1.980
2024-03-23T06:30:19.567Z,1.990
2024-03-23T06:31:19.558Z,2.090
2024-03-23T06:32:19.576Z,2.062
2024-03-23T06:33:19.578Z,2.047
2024-03-23T06:34:19.588Z,2.035
2024-03-23T06:35:19.612Z,1.939
2024-03-23T06:36:19.635Z,1.927
2024-03-23T06:37:19.616Z,1.886
2024-03-23T06:38:19.627Z,1.835
2024-03-23T06:39:19.631Z,1.820
2024-03-23T06:40:19.640Z,1.691
2024-03-23T06:41:19.647Z,1.664
2024-03-23T06:42:19.642Z,1.575
2024-03-23T06:43:19.660Z,1.588
2024-03-23T06:44:19.690Z,1.475
2024-03-23T06:45:19.680Z,1.530
2024-03-23T06:46:19.696Z,1.532
2024-03-23T06:47:19.704Z,1.532
2024-03-23T06:48:19.716Z,1.491
2024-03-23T06:49:21.910Z,1.527
2024-03-23T06:50:19.734Z,1.499
2024-03-23T06:51:19.754Z,1.411
2024-03-23T06:52:19.751Z,1.384
2024-03-23T06:53:19.753Z,1.382
2024-03-23T06:54:19.772Z,1.361
2024-03-23T06:55:19.779Z,1.375
2024-03-23T06:56:19.779Z,1.361
2024-03-23T06:57:19.787Z,1.361
2024-03-23T06:58:19.820Z,1.347
2024-03-23T06:59:19.808Z,1.366
2024-03-23T07:00:19.821Z,1.351
2024-03-23T07:01:19.839Z,1.338
2024-03-23T07:02:19.844Z,1.338
2024-03-23T07:03:19.874Z,1.324
2024-03-23T07:04:19.869Z,1.370
2024-03-23T07:05:19.884Z,1.370
2024-03-23T07:06:21.729Z,1.383
2024-03-23T07:07:19.895Z,1.384
2024-03-23T07:08:19.886Z,1.383
2024-03-23T07:09:19.899Z,1.307
2024-03-23T07:10:19.928Z,1.334
2024-03-23T07:11:19.914Z,1.362
2024-03-23T07:12:19.952Z,1.335
2024-03-23T07:13:19.949Z,1.321
2024-03-23T07:14:19.953Z,1.366
2024-03-23T07:15:19.963Z,1.354
2024-03-23T07:16:19.973Z,1.381
2024-03-23T07:17:19.992Z,1.392
2024-03-23T07:18:19.980Z,1.409
2024-03-23T07:19:19.988Z,1.464
2024-03-23T07:20:19.987Z,1.439
2024-03-23T07:21:19.995Z,1.451
2024-03-23T07:22:20.000Z,1.466
2024-03-23T07:23:20.009Z,1.543
2024-03-23T07:24:20.025Z,1.468
2024-03-23T07:25:20.032Z,1.400
2024-03-23T07:26:20.076Z,1.414
2024-03-23T07:27:20.052Z,1.402
2024-03-23T07:28:20.047Z,1.441
2024-03-23T07:29:20.059Z,1.460
2024-03-23T07:30:20.063Z,1.460
2024-03-23T07:31:20.086Z,1.448
2024-03-23T07:32:20.071Z,1.420
2024-03-23T07:33:20.070Z,1.432
2024-03-23T07:34:20.082Z,1.472
2024-03-23T07:35:20.098Z,1.444
2024-03-23T07:36:20.108Z,1.417
2024-03-23T07:37:20.109Z,1.453
2024-03-23T07:38:20.121Z,1.493
2024-03-23T07:39:20.132Z,1.514
2024-03-23T07:40:20.160Z,1.502
2024-03-23T07:41:20.153Z,1.367
2024-03-23T07:42:20.138Z,1.350
2024-03-23T07:43:20.142Z,1.379
2024-03-23T07:44:20.144Z,1.371
2024-03-23T07:45:20.176Z,1.398
2024-03-23T07:46:20.159Z,1.296
2024-03-23T07:47:20.222Z,1.294
2024-03-23T07:48:20.176Z,1.329
2024-03-23T07:49:20.204Z,1.316
2024-03-23T07:50:20.198Z,1.276
2024-03-23T07:51:20.198Z,1.357
2024-03-23T07:52:20.213Z,1.422
2024-03-23T07:53:20.216Z,1.448
2024-03-23T07:54:20.579Z,1.409
2024-03-23T07:55:20.218Z,1.409
2024-03-23T07:56:20.225Z,1.393
2024-03-23T07:57:20.227Z,1.373
2024-03-23T07:58:20.248Z,1.319
2024-03-23T07:59:20.262Z,1.277
2024-03-23T08:00:20.256Z,1.249
2024-03-23T08:01:20.268Z,1.234
2024-03-23T08:02:20.282Z,1.253
2024-03-23T08:03:20.290Z,1.296
2024-03-23T08:04:20.293Z,1.351
2024-03-23T08:05:20.308Z,1.386
2024-03-23T08:06:20.308Z,1.425
2024-03-23T08:07:20.312Z,1.328
2024-03-23T08:08:20.319Z,1.342
2024-03-23T08:09:20.312Z,1.340
2024-03-23T08:10:20.333Z,1.257
2024-03-23T08:11:20.341Z,1.272
2024-03-23T08:12:20.351Z,1.145
2024-03-23T08:13:20.388Z,1.104
2024-03-23T08:14:20.368Z,1.132
2024-03-23T08:15:20.374Z,1.090
2024-03-23T08:16:20.379Z,0.9756
2024-03-23T08:17:20.386Z,0.8071
2024-03-23T08:18:20.388Z,0.7780
2024-03-23T08:19:20.391Z,0.9214
2024-03-23T08:20:20.402Z,0.9794
2024-03-23T08:21:20.415Z,1.021
2024-03-23T08:22:20.442Z,1.022
2024-03-23T08:23:20.447Z,0.9935
2024-03-23T08:24:20.451Z,0.9793
2024-03-23T08:25:20.460Z,0.9068
2024-03-23T08:26:20.477Z,0.8656
2024-03-23T08:27:20.495Z,0.7992
2024-03-23T08:28:20.477Z,0.8713
2024-03-23T08:29:20.482Z,0.8846
2024-03-23T08:30:20.484Z,0.8693
2024-03-23T08:31:20.488Z,0.8856
2024-03-23T08:32:20.499Z,0.9276
2024-03-23T08:33:20.523Z,0.9708
2024-03-23T08:34:20.523Z,0.9980
2024-03-23T08:35:20.559Z,1.148
2024-03-23T08:36:20.543Z,1.111
2024-03-23T08:37:20.538Z,1.081
2024-03-23T08:38:20.549Z,1.123
2024-03-23T08:39:24.440Z,1.216
2024-03-23T08:40:20.551Z,1.213
2024-03-23T08:41:20.589Z,1.199
2024-03-23T08:42:20.590Z,1.113
2024-03-23T08:43:20.577Z,1.114
2024-03-23T08:44:20.582Z,1.129
2024-03-23T08:45:20.597Z,1.157
2024-03-23T08:46:20.608Z,1.212
2024-03-23T08:47:20.609Z,1.292
2024-03-23T08:48:20.628Z,1.348
2024-03-23T08:49:20.640Z,1.292
2024-03-23T08:50:20.649Z,1.250
2024-03-23T08:51:20.637Z,1.279
2024-03-23T08:52:20.658Z,1.295
2024-03-23T08:53:20.651Z,1.323
2024-03-23T08:54:20.664Z,1.365
2024-03-23T08:55:20.672Z,1.422
2024-03-23T08:56:20.672Z,1.421
2024-03-23T08:57:20.690Z,1.417
2024-03-23T08:58:20.710Z,1.485
2024-03-23T08:59:20.708Z,1.543
2024-03-23T09:00:20.716Z,1.582
2024-03-23T09:01:20.725Z,1.624
2024-03-23T09:02:20.730Z,1.589
2024-03-23T09:03:20.740Z,1.586
2024-03-23T09:04:20.756Z,1.575
2024-03-23T09:05:20.745Z,1.627
2024-03-23T09:06:20.758Z,1.654
2024-03-23T09:07:20.763Z,1.650
2024-03-23T09:08:20.772Z,1.586
2024-03-23T09:09:20.808Z,1.624
2024-03-23T09:10:20.793Z,1.638
2024-03-23T09:11:20.804Z,1.613
2024-03-23T09:12:20.814Z,1.607
2024-03-23T09:13:20.846Z,1.608
2024-03-23T09:14:20.833Z,1.466
2024-03-23T09:15:20.830Z,1.467
2024-03-23T09:16:20.841Z,1.480
2024-03-23T09:17:20.857Z,1.480
2024-03-23T09:18:20.865Z,1.466
2024-03-23T09:19:20.852Z,1.556
2024-03-23T09:20:20.859Z,1.570
2024-03-23T09:21:20.877Z,1.569
2024-03-23T09:22:20.880Z,1.597
2024-03-23T09:23:20.899Z,1.624
2024-03-23T09:24:20.910Z,1.666
2024-03-23T09:25:20.911Z,1.639
2024-03-23T09:26:20.928Z,1.612
2024-03-23T09:27:20.948Z,1.612
2024-03-23T09:28:20.954Z,1.570
2024-03-23T09:29:20.954Z,1.526
2024-03-23T09:30:20.956Z,1.497
2024-03-23T09:31:20.964Z,1.497
2024-03-23T09:32:20.960Z,1.484
2024-03-23T09:33:20.966Z,1.552
2024-03-23T09:34:20.982Z,1.556
2024-03-23T09:35:20.987Z,1.597
2024-03-23T09:36:20.996Z,1.597
2024-03-23T09:37:21.013Z,1.638
2024-03-23T09:38:21.021Z,1.583
2024-03-23T09:39:23.126Z,1.455
2024-03-23T09:40:21.040Z,1.297
2024-03-23T09:41:21.057Z,1.445
2024-03-23T09:42:21.059Z,1.431
2024-03-23T09:43:21.067Z,1.484
2024-03-23T09:44:21.063Z,1.363
2024-03-23T09:45:21.061Z,1.528
2024-03-23T09:46:21.096Z,1.419
2024-03-23T09:47:21.089Z,1.350
2024-03-23T09:48:21.107Z,1.349
2024-03-23T09:49:21.115Z,1.323
2024-03-23T09:50:21.121Z,1.327
2024-03-23T09:51:21.149Z,1.354
2024-03-23T09:52:21.134Z,1.313
2024-03-23T09:53:21.150Z,1.244
2024-03-23T09:54:21.150Z,1.188
2024-03-23T09:55:21.165Z,1.098
2024-03-23T09:56:21.155Z,1.154
2024-03-23T09:57:21.160Z,1.224
2024-03-23T09:58:21.166Z,1.266
2024-03-23T09:59:21.185Z,1.278
2024-03-23T10:00:21.212Z,1.283
2024-03-23T10:01:21.211Z,1.226
2024-03-23T10:02:21.224Z,1.157
2024-03-23T10:03:21.241Z,1.074
2024-03-23T10:04:21.254Z,1.002
2024-03-23T10:05:22.714Z,0.9371
2024-03-23T10:06:21.262Z,0.9897
2024-03-23T10:07:21.276Z,0.9607
2024-03-23T10:08:21.270Z,1.041
2024-03-23T10:09:21.286Z,1.110
2024-03-23T10:10:21.277Z,1.117
2024-03-23T10:11:21.296Z,1.117
2024-03-23T10:12:21.315Z,1.101
2024-03-23T10:13:21.335Z,1.104
2024-03-23T10:14:21.351Z,1.116
2024-03-23T10:15:21.353Z,1.135
2024-03-23T10:16:21.360Z,1.121
2024-03-23T10:17:21.375Z,1.107
2024-03-23T10:18:21.373Z,1.135
2024-03-23T10:19:21.407Z,1.177
2024-03-23T10:20:21.378Z,1.093
2024-03-23T10:21:21.386Z,1.121
2024-03-23T10:22:21.399Z,1.149
2024-03-23T10:23:21.426Z,1.205
2024-03-23T10:24:21.427Z,1.194
2024-03-23T10:25:21.433Z,1.177
2024-03-23T10:26:21.439Z,0.9547
2024-03-23T10:27:21.451Z,0.7570
2024-03-23T10:28:21.475Z,0.5972
2024-03-23T10:29:21.464Z,0.6386
2024-03-23T10:30:21.467Z,0.5828
2024-03-23T10:31:21.474Z,0.5091
2024-03-23T10:32:21.483Z,0.4830
2024-03-23T10:33:21.487Z,0.4685
2024-03-23T10:34:21.524Z,0.5120
2024-03-23T10:35:21.523Z,0.5265
2024-03-23T10:36:21.530Z,0.4395
2024-03-23T10:37:21.548Z,0.4822
2024-03-23T10:38:21.539Z,0.4967
2024-03-23T10:39:21.554Z,0.4676
2024-03-23T10:40:21.562Z,0.3809
2024-03-23T10:41:21.564Z,0.3153
2024-03-23T10:42:21.587Z,0.3430
2024-03-23T10:43:21.571Z,0.3005
2024-03-23T10:44:21.586Z,0.2571
2024-03-23T10:45:21.611Z,0.2428
2024-03-23T10:46:21.614Z,0.2889
2024-03-23T10:47:21.647Z,0.3028
2024-03-23T10:48:21.629Z,0.3315
2024-03-23T10:49:21.647Z,0.3754
2024-03-23T10:50:21.648Z,0.3315
2024-03-23T10:51:21.671Z,0.3357
2024-03-23T10:52:21.658Z,0.3925
2024-03-23T10:53:21.652Z,0.4215
2024-03-23T10:54:21.692Z,0.4644
2024-03-23T10:55:21.681Z,0.5657
2024-03-23T10:56:21.715Z,0.6628
2024-03-23T10:57:21.719Z,0.7340
2024-03-23T10:58:21.718Z,0.8200
2024-03-23T10:59:21.717Z,0.8759
2024-03-23T11:00:21.729Z,0.8759
2024-03-23T11:01:21.729Z,0.8627
2024-03-23T11:02:21.735Z,1.001
2024-03-23T11:03:21.746Z,0.9601
2024-03-23T11:04:21.737Z,0.9364
2024-03-23T11:05:21.772Z,0.9364
2024-03-23T11:06:21.776Z,0.9643
2024-03-23T11:07:21.775Z,0.9374
2024-03-23T11:08:21.785Z,1.033
2024-03-23T11:09:21.797Z,1.071
2024-03-23T11:10:21.827Z,1.057
2024-03-23T11:11:21.809Z,1.014
2024-03-23T11:12:21.815Z,0.9863
2024-03-23T11:13:21.819Z,0.8890
2024-03-23T11:14:21.831Z,0.8890
2024-03-23T11:15:21.823Z,0.8643
2024-03-23T11:16:21.842Z,0.9193
2024-03-23T11:17:21.832Z,0.9456
2024-03-23T11:18:21.871Z,0.9188
2024-03-23T11:19:21.871Z,0.9463
2024-03-23T11:20:21.872Z,1.003
2024-03-23T11:21:21.882Z,1.032
2024-03-23T11:22:21.892Z,1.045
2024-03-23T11:23:21.898Z,1.090
2024-03-23T11:24:21.908Z,1.119
2024-03-23T11:25:21.921Z,1.133
2024-03-23T11:26:21.912Z,1.161
2024-03-23T11:27:21.922Z,1.188
2024-03-23T11:28:21.923Z,1.222
2024-03-23T11:29:21.933Z,1.302
2024-03-23T11:30:21.946Z,1.288
2024-03-23T11:31:21.954Z,1.288
2024-03-23T11:32:21.963Z,1.338
2024-03-23T11:33:21.986Z,1.447
2024-03-23T11:34:21.985Z,1.478
2024-03-23T11:35:21.998Z,1.464
2024-03-23T11:36:22.000Z,1.489
2024-03-23T11:37:22.011Z,1.464
2024-03-23T11:38:22.028Z,1.517
2024-03-23T11:39:22.027Z,1.529
2024-03-23T11:40:22.025Z,1.514
2024-03-23T11:41:22.025Z,1.476
2024-03-23T11:42:22.023Z,1.519
2024-03-23T11:43:22.036Z,1.548
2024-03-23T11:44:22.048Z,1.521
2024-03-23T11:45:22.050Z,1.574
2024-03-23T11:46:22.064Z,1.590
2024-03-23T11:47:22.117Z,1.629
2024-03-23T11:48:22.092Z,1.641
2024-03-23T11:49:22.098Z,1.641
2024-03-23T11:50:22.110Z,1.674
2024-03-23T11:51:22.107Z,1.675
2024-03-23T11:52:22.134Z,1.702
2024-03-23T11:53:22.119Z,1.652
2024-03-23T11:54:22.114Z,1.553
2024-03-23T11:55:22.130Z,1.497
2024-03-23T11:56:22.146Z,1.468
2024-03-23T11:57:22.178Z,1.497
2024-03-23T11:58:22.210Z,1.496
2024-03-23T11:59:22.188Z,1.523
2024-03-23T12:00:22.202Z,1.538
2024-03-23T12:01:22.215Z,1.482
2024-03-23T12:02:22.198Z,1.496
2024-03-23T12:03:22.206Z,1.585
2024-03-23T12:04:22.218Z,1.688
2024-03-23T12:05:22.221Z,1.717
2024-03-23T12:06:22.237Z,1.673
2024-03-23T12:07:22.236Z,1.618
2024-03-23T12:08:22.236Z,1.654
2024-03-23T12:09:22.236Z,1.637
2024-03-23T12:10:22.244Z,1.555
2024-03-23T12:11:22.254Z,1.526
2024-03-23T12:12:22.262Z,1.522
2024-03-23T12:13:22.278Z,1.511
2024-03-23T12:14:22.291Z,1.549
2024-03-23T12:15:22.304Z,1.540
2024-03-23T12:16:22.296Z,1.540
2024-03-23T12:17:22.303Z,1.483
2024-03-23T12:18:22.299Z,1.567
2024-03-23T12:19:22.302Z,1.528
2024-03-23T12:20:22.332Z,1.486
2024-03-23T12:21:22.335Z,1.485
2024-03-23T12:22:22.346Z,1.470
2024-03-23T12:23:22.348Z,1.510
2024-03-23T12:24:22.352Z,1.552
2024-03-23T12:25:22.363Z,1.610
2024-03-23T12:26:22.368Z,1.743
2024-03-23T12:27:22.381Z,1.771
2024-03-23T12:28:22.384Z,1.835
2024-03-23T12:29:22.393Z,1.807
2024-03-23T12:30:22.388Z,1.807
2024-03-23T12:31:22.398Z,1.746
2024-03-23T12:32:22.425Z,1.693
2024-03-23T12:33:22.407Z,1.806
2024-03-23T12:34:22.424Z,1.820
2024-03-23T12:35:22.423Z,1.802
2024-03-23T12:36:22.439Z,1.880
2024-03-23T12:37:22.451Z,1.924
2024-03-23T12:38:22.458Z,1.966
2024-03-23T12:39:22.467Z,2.008
2024-03-23T12:40:22.471Z,2.008
2024-03-23T12:41:22.478Z,2.023
2024-03-23T12:42:22.477Z,1.967
2024-03-23T12:43:22.510Z,1.951
2024-03-23T12:44:22.484Z,1.951
2024-03-23T12:45:22.507Z,1.937
2024-03-23T12:46:22.513Z,1.808
2024-03-23T12:47:22.521Z,1.822
2024-03-23T12:48:22.558Z,1.850
2024-03-23T12:49:22.547Z,1.879
2024-03-23T12:50:22.550Z,1.946